sensor_id;sensor_type;location;lat;lon;timestamp;P1;durP1;ratioP1;P2;durP2;ratioP2
16179;SDS011;8196;49.428;10.906;2023-02-10T00:00:16;40.67;;;27.48;;
16179;SDS011;8196;49.428;10.906;2023-02-10T00:02:43;42.38;;;28.80;;
16179;SDS011;8196;49.428;10.906;2023-02-10T00:05:10;43.63;;;29.25;;
16179;SDS011;8196;49.428;10.906;2023-02-10T00:07:38;43.72;;;28.73;;
16179;SDS011;8196;49.428;10.906;2023-02-10T00:10:05;44.83;;;29.83;;
16179;SDS011;8196;49.428;10.906;2023-02-10T00:12:35;43.47;;;29.98;;
16179;SDS011;8196;49.428;10.906;2023-02-10T00:15:02;52.50;;;34.13;;
16179;SDS011;8196;49.428;10.906;2023-02-10T00:17:30;50.30;;;33.47;;
16179;SDS011;8196;49.428;10.906;2023-02-10T00:19:57;48.70;;;32.13;;
16179;SDS011;8196;49.428;10.906;2023-02-10T00:22:24;50.95;;;33.92;;
16179;SDS011;8196;49.428;10.906;2023-02-10T00:24:52;48.70;;;32.92;;
16179;SDS011;8196;49.428;10.906;2023-02-10T00:27:19;45.60;;;30.20;;
16179;SDS011;8196;49.428;10.906;2023-02-10T00:29:50;41.10;;;28.40;;
16179;SDS011;8196;49.428;10.906;2023-02-10T00:32:17;39.22;;;28.02;;
16179;SDS011;8196;49.428;10.906;2023-02-10T00:34:45;40.53;;;27.63;;
16179;SDS011;8196;49.428;10.906;2023-02-10T00:37:12;44.20;;;28.95;;
16179;SDS011;8196;49.428;10.906;2023-02-10T00:39:39;45.00;;;30.57;;
16179;SDS011;8196;49.428;10.906;2023-02-10T00:42:07;42.33;;;29.55;;
16179;SDS011;8196;49.428;10.906;2023-02-10T00:44:34;44.13;;;29.05;;
16179;SDS011;8196;49.428;10.906;2023-02-10T00:47:01;41.70;;;28.00;;
16179;SDS011;8196;49.428;10.906;2023-02-10T00:49:28;37.75;;;26.63;;
16179;SDS011;8196;49.428;10.906;2023-02-10T00:51:55;40.20;;;28.35;;
16179;SDS011;8196;49.428;10.906;2023-02-10T00:54:23;45.13;;;29.73;;
16179;SDS011;8196;49.428;10.906;2023-02-10T00:56:50;47.63;;;31.95;;
16179;SDS011;8196;49.428;10.906;2023-02-10T00:59:17;50.00;;;33.53;;
16179;SDS011;8196;49.428;10.906;2023-02-10T01:01:46;51.77;;;32.87;;
16179;SDS011;8196;49.428;10.906;2023-02-10T01:04:13;45.72;;;29.73;;
16179;SDS011;8196;49.428;10.906;2023-02-10T01:06:40;44.13;;;29.70;;
16179;SDS011;8196;49.428;10.906;2023-02-10T01:09:07;41.73;;;28.23;;
16179;SDS011;8196;49.428;10.906;2023-02-10T01:11:35;42.38;;;29.58;;
16179;SDS011;8196;49.428;10.906;2023-02-10T01:14:02;41.92;;;28.85;;
16179;SDS011;8196;49.428;10.906;2023-02-10T01:16:29;44.90;;;28.45;;
16179;SDS011;8196;49.428;10.906;2023-02-10T01:18:58;40.78;;;28.38;;
16179;SDS011;8196;49.428;10.906;2023-02-10T01:21:26;44.38;;;28.92;;
16179;SDS011;8196;49.428;10.906;2023-02-10T01:23:53;38.90;;;26.38;;
16179;SDS011;8196;49.428;10.906;2023-02-10T01:26:20;45.30;;;29.27;;
16179;SDS011;8196;49.428;10.906;2023-02-10T01:28:47;41.85;;;28.70;;
16179;SDS011;8196;49.428;10.906;2023-02-10T01:31:15;45.10;;;29.95;;
16179;SDS011;8196;49.428;10.906;2023-02-10T01:33:43;42.70;;;28.60;;
16179;SDS011;8196;49.428;10.906;2023-02-10T01:36:12;43.67;;;28.60;;
16179;SDS011;8196;49.428;10.906;2023-02-10T01:38:40;50.80;;;32.53;;
16179;SDS011;8196;49.428;10.906;2023-02-10T01:41:07;45.40;;;31.52;;
16179;SDS011;8196;49.428;10.906;2023-02-10T01:46:22;47.17;;;33.08;;
16179;SDS011;8196;49.428;10.906;2023-02-10T01:48:49;43.97;;;31.10;;
16179;SDS011;8196;49.428;10.906;2023-02-10T01:51:17;48.80;;;31.95;;
16179;SDS011;8196;49.428;10.906;2023-02-10T01:53:46;45.60;;;30.53;;
16179;SDS011;8196;49.428;10.906;2023-02-10T01:56:13;44.55;;;29.95;;
16179;SDS011;8196;49.428;10.906;2023-02-10T01:58:41;44.88;;;30.08;;
16179;SDS011;8196;49.428;10.906;2023-02-10T02:01:09;43.13;;;28.40;;
16179;SDS011;8196;49.428;10.906;2023-02-10T02:03:36;45.10;;;29.95;;
16179;SDS011;8196;49.428;10.906;2023-02-10T02:06:07;41.78;;;28.88;;
16179;SDS011;8196;49.428;10.906;2023-02-10T02:14:00;43.95;;;29.13;;
16179;SDS011;8196;49.428;10.906;2023-02-10T02:21:46;45.83;;;29.50;;
16179;SDS011;8196;49.428;10.906;2023-02-10T02:24:21;49.10;;;32.38;;
16179;SDS011;8196;49.428;10.906;2023-02-10T02:27:01;43.90;;;30.30;;
16179;SDS011;8196;49.428;10.906;2023-02-10T02:29:51;41.17;;;28.83;;
16179;SDS011;8196;49.428;10.906;2023-02-10T02:32:19;44.13;;;30.27;;
16179;SDS011;8196;49.428;10.906;2023-02-10T02:37:19;44.20;;;30.35;;
16179;SDS011;8196;49.428;10.906;2023-02-10T02:39:49;45.60;;;29.17;;
16179;SDS011;8196;49.428;10.906;2023-02-10T02:42:21;41.53;;;27.85;;
16179;SDS011;8196;49.428;10.906;2023-02-10T02:44:51;39.92;;;27.98;;
16179;SDS011;8196;49.428;10.906;2023-02-10T02:47:27;45.03;;;30.05;;
16179;SDS011;8196;49.428;10.906;2023-02-10T02:50:16;43.65;;;28.65;;
16179;SDS011;8196;49.428;10.906;2023-02-10T02:52:48;39.22;;;27.77;;
16179;SDS011;8196;49.428;10.906;2023-02-10T02:55:20;42.30;;;28.20;;
16179;SDS011;8196;49.428;10.906;2023-02-10T02:57:52;41.00;;;28.25;;
16179;SDS011;8196;49.428;10.906;2023-02-10T03:00:24;39.50;;;28.27;;
16179;SDS011;8196;49.428;10.906;2023-02-10T03:02:53;38.95;;;26.70;;
16179;SDS011;8196;49.428;10.906;2023-02-10T03:05:21;40.38;;;26.63;;
16179;SDS011;8196;49.428;10.906;2023-02-10T03:07:49;41.73;;;27.53;;
16179;SDS011;8196;49.428;10.906;2023-02-10T03:10:17;48.58;;;30.83;;
16179;SDS011;8196;49.428;10.906;2023-02-10T03:12:44;45.95;;;30.52;;
16179;SDS011;8196;49.428;10.906;2023-02-10T03:15:11;45.88;;;31.13;;
16179;SDS011;8196;49.428;10.906;2023-02-10T03:17:38;48.13;;;30.73;;
16179;SDS011;8196;49.428;10.906;2023-02-10T03:20:05;48.22;;;31.85;;
16179;SDS011;8196;49.428;10.906;2023-02-10T03:22:33;46.28;;;30.35;;
16179;SDS011;8196;49.428;10.906;2023-02-10T03:25:00;43.63;;;29.80;;
16179;SDS011;8196;49.428;10.906;2023-02-10T03:27:27;42.25;;;29.10;;
16179;SDS011;8196;49.428;10.906;2023-02-10T03:29:54;44.72;;;30.15;;
16179;SDS011;8196;49.428;10.906;2023-02-10T03:32:21;41.22;;;28.83;;
16179;SDS011;8196;49.428;10.906;2023-02-10T03:34:48;47.85;;;31.02;;
16179;SDS011;8196;49.428;10.906;2023-02-10T03:37:15;49.28;;;31.80;;
16179;SDS011;8196;49.428;10.906;2023-02-10T03:39:42;44.83;;;29.63;;
16179;SDS011;8196;49.428;10.906;2023-02-10T03:42:09;44.35;;;29.10;;
16179;SDS011;8196;49.428;10.906;2023-02-10T03:44:37;42.47;;;28.10;;
16179;SDS011;8196;49.428;10.906;2023-02-10T03:47:04;45.40;;;30.42;;
16179;SDS011;8196;49.428;10.906;2023-02-10T03:49:31;41.35;;;29.02;;
16179;SDS011;8196;49.428;10.906;2023-02-10T03:51:58;38.28;;;26.88;;
16179;SDS011;8196;49.428;10.906;2023-02-10T03:54:25;44.10;;;29.35;;
16179;SDS011;8196;49.428;10.906;2023-02-10T03:56:53;42.08;;;28.33;;
16179;SDS011;8196;49.428;10.906;2023-02-10T03:59:20;41.97;;;27.57;;
16179;SDS011;8196;49.428;10.906;2023-02-10T04:01:48;40.17;;;27.70;;
16179;SDS011;8196;49.428;10.906;2023-02-10T04:04:15;40.53;;;27.95;;
16179;SDS011;8196;49.428;10.906;2023-02-10T04:06:42;42.60;;;29.02;;
16179;SDS011;8196;49.428;10.906;2023-02-10T04:09:09;45.45;;;30.13;;
16179;SDS011;8196;49.428;10.906;2023-02-10T04:11:36;44.05;;;28.95;;
16179;SDS011;8196;49.428;10.906;2023-02-10T04:14:03;42.85;;;27.70;;
16179;SDS011;8196;49.428;10.906;2023-02-10T04:16:30;41.72;;;27.70;;
16179;SDS011;8196;49.428;10.906;2023-02-10T04:21:26;41.45;;;27.88;;
16179;SDS011;8196;49.428;10.906;2023-02-10T04:23:53;42.13;;;28.63;;
16179;SDS011;8196;49.428;10.906;2023-02-10T04:26:22;40.05;;;27.00;;
16179;SDS011;8196;49.428;10.906;2023-02-10T04:28:49;44.63;;;29.67;;
16179;SDS011;8196;49.428;10.906;2023-02-10T04:31:16;44.35;;;28.77;;
16179;SDS011;8196;49.428;10.906;2023-02-10T04:33:44;41.40;;;28.05;;
16179;SDS011;8196;49.428;10.906;2023-02-10T04:36:11;42.40;;;28.88;;
16179;SDS011;8196;49.428;10.906;2023-02-10T04:38:38;41.70;;;28.10;;
16179;SDS011;8196;49.428;10.906;2023-02-10T04:41:05;41.92;;;27.00;;
16179;SDS011;8196;49.428;10.906;2023-02-10T04:43:33;44.13;;;29.10;;
16179;SDS011;8196;49.428;10.906;2023-02-10T04:46:00;48.60;;;30.63;;
16179;SDS011;8196;49.428;10.906;2023-02-10T04:48:28;49.90;;;32.78;;
16179;SDS011;8196;49.428;10.906;2023-02-10T04:50:55;49.58;;;31.23;;
16179;SDS011;8196;49.428;10.906;2023-02-10T04:53:23;47.05;;;31.45;;
16179;SDS011;8196;49.428;10.906;2023-02-10T04:55:50;46.42;;;30.48;;
16179;SDS011;8196;49.428;10.906;2023-02-10T04:58:17;44.80;;;30.33;;
16179;SDS011;8196;49.428;10.906;2023-02-10T05:00:45;46.90;;;30.70;;
16179;SDS011;8196;49.428;10.906;2023-02-10T05:03:12;45.07;;;29.43;;
16179;SDS011;8196;49.428;10.906;2023-02-10T05:05:39;43.80;;;30.20;;
16179;SDS011;8196;49.428;10.906;2023-02-10T05:08:06;44.85;;;29.45;;
16179;SDS011;8196;49.428;10.906;2023-02-10T05:10:34;45.25;;;29.38;;
16179;SDS011;8196;49.428;10.906;2023-02-10T05:13:01;46.25;;;30.27;;
16179;SDS011;8196;49.428;10.906;2023-02-10T05:15:27;47.03;;;31.80;;
16179;SDS011;8196;49.428;10.906;2023-02-10T05:17:54;45.00;;;28.98;;
16179;SDS011;8196;49.428;10.906;2023-02-10T05:20:22;44.22;;;29.67;;
16179;SDS011;8196;49.428;10.906;2023-02-10T05:22:49;43.40;;;28.83;;
16179;SDS011;8196;49.428;10.906;2023-02-10T05:25:16;45.65;;;30.52;;
16179;SDS011;8196;49.428;10.906;2023-02-10T05:27:43;48.70;;;30.73;;
16179;SDS011;8196;49.428;10.906;2023-02-10T05:30:10;46.20;;;30.35;;
16179;SDS011;8196;49.428;10.906;2023-02-10T05:32:39;40.03;;;27.03;;
16179;SDS011;8196;49.428;10.906;2023-02-10T05:35:07;46.75;;;29.25;;
16179;SDS011;8196;49.428;10.906;2023-02-10T05:37:34;46.15;;;29.13;;
16179;SDS011;8196;49.428;10.906;2023-02-10T05:40:01;45.72;;;30.33;;
16179;SDS011;8196;49.428;10.906;2023-02-10T05:42:28;47.00;;;29.60;;
16179;SDS011;8196;49.428;10.906;2023-02-10T05:44:55;46.17;;;30.73;;
16179;SDS011;8196;49.428;10.906;2023-02-10T05:47:23;52.92;;;33.58;;
16179;SDS011;8196;49.428;10.906;2023-02-10T05:49:50;54.17;;;34.33;;
16179;SDS011;8196;49.428;10.906;2023-02-10T05:52:17;56.67;;;35.60;;
16179;SDS011;8196;49.428;10.906;2023-02-10T05:54:44;58.13;;;37.15;;
16179;SDS011;8196;49.428;10.906;2023-02-10T05:57:11;56.78;;;35.90;;
16179;SDS011;8196;49.428;10.906;2023-02-10T05:59:38;55.83;;;35.75;;
16179;SDS011;8196;49.428;10.906;2023-02-10T06:02:05;52.60;;;35.22;;
16179;SDS011;8196;49.428;10.906;2023-02-10T06:04:32;57.75;;;35.47;;
16179;SDS011;8196;49.428;10.906;2023-02-10T06:07:00;52.70;;;33.72;;
16179;SDS011;8196;49.428;10.906;2023-02-10T06:09:27;55.55;;;35.22;;
16179;SDS011;8196;49.428;10.906;2023-02-10T06:11:54;58.83;;;36.17;;
16179;SDS011;8196;49.428;10.906;2023-02-10T06:14:21;62.05;;;38.53;;
16179;SDS011;8196;49.428;10.906;2023-02-10T06:16:48;54.08;;;33.83;;
16179;SDS011;8196;49.428;10.906;2023-02-10T06:19:15;54.70;;;35.13;;
16179;SDS011;8196;49.428;10.906;2023-02-10T06:21:45;53.35;;;31.98;;
16179;SDS011;8196;49.428;10.906;2023-02-10T06:24:13;52.17;;;32.38;;
16179;SDS011;8196;49.428;10.906;2023-02-10T06:26:40;51.50;;;32.33;;
16179;SDS011;8196;49.428;10.906;2023-02-10T06:29:07;54.33;;;34.63;;
16179;SDS011;8196;49.428;10.906;2023-02-10T06:31:35;53.65;;;34.30;;
16179;SDS011;8196;49.428;10.906;2023-02-10T06:34:02;53.08;;;34.80;;
16179;SDS011;8196;49.428;10.906;2023-02-10T06:36:29;57.15;;;35.33;;
16179;SDS011;8196;49.428;10.906;2023-02-10T06:38:56;55.67;;;35.67;;
16179;SDS011;8196;49.428;10.906;2023-02-10T06:41:23;52.20;;;33.40;;
16179;SDS011;8196;49.428;10.906;2023-02-10T06:43:50;52.00;;;32.40;;
16179;SDS011;8196;49.428;10.906;2023-02-10T06:46:17;50.85;;;31.85;;
16179;SDS011;8196;49.428;10.906;2023-02-10T06:48:44;48.35;;;31.13;;
16179;SDS011;8196;49.428;10.906;2023-02-10T06:51:12;46.13;;;29.07;;
16179;SDS011;8196;49.428;10.906;2023-02-10T06:53:39;45.47;;;30.25;;
16179;SDS011;8196;49.428;10.906;2023-02-10T06:56:07;45.00;;;30.50;;
16179;SDS011;8196;49.428;10.906;2023-02-10T06:58:34;41.95;;;28.70;;
16179;SDS011;8196;49.428;10.906;2023-02-10T07:01:06;43.90;;;29.08;;
16179;SDS011;8196;49.428;10.906;2023-02-10T07:03:33;44.08;;;29.77;;
16179;SDS011;8196;49.428;10.906;2023-02-10T07:06:00;46.88;;;30.27;;
16179;SDS011;8196;49.428;10.906;2023-02-10T07:08:27;46.33;;;30.25;;
16179;SDS011;8196;49.428;10.906;2023-02-10T07:10:54;48.17;;;31.52;;
16179;SDS011;8196;49.428;10.906;2023-02-10T07:13:22;50.40;;;31.70;;
16179;SDS011;8196;49.428;10.906;2023-02-10T07:15:49;45.88;;;30.23;;
16179;SDS011;8196;49.428;10.906;2023-02-10T07:18:16;46.03;;;29.60;;
16179;SDS011;8196;49.428;10.906;2023-02-10T07:20:43;44.88;;;30.38;;
16179;SDS011;8196;49.428;10.906;2023-02-10T07:23:11;47.60;;;32.13;;
16179;SDS011;8196;49.428;10.906;2023-02-10T07:25:38;48.90;;;33.20;;
16179;SDS011;8196;49.428;10.906;2023-02-10T07:28:05;49.28;;;31.65;;
16179;SDS011;8196;49.428;10.906;2023-02-10T07:30:34;47.53;;;31.80;;
16179;SDS011;8196;49.428;10.906;2023-02-10T07:33:01;46.53;;;31.20;;
16179;SDS011;8196;49.428;10.906;2023-02-10T07:35:29;44.80;;;30.83;;
16179;SDS011;8196;49.428;10.906;2023-02-10T07:37:56;47.45;;;31.77;;
16179;SDS011;8196;49.428;10.906;2023-02-10T07:40:23;44.63;;;31.38;;
16179;SDS011;8196;49.428;10.906;2023-02-10T07:42:54;50.13;;;35.13;;
16179;SDS011;8196;49.428;10.906;2023-02-10T07:45:22;47.40;;;32.58;;
16179;SDS011;8196;49.428;10.906;2023-02-10T07:47:49;48.97;;;33.88;;
16179;SDS011;8196;49.428;10.906;2023-02-10T07:50:16;47.87;;;33.70;;
16179;SDS011;8196;49.428;10.906;2023-02-10T07:52:43;47.25;;;33.88;;
16179;SDS011;8196;49.428;10.906;2023-02-10T07:55:10;49.17;;;35.00;;
16179;SDS011;8196;49.428;10.906;2023-02-10T07:57:37;51.30;;;35.38;;
16179;SDS011;8196;49.428;10.906;2023-02-10T08:00:06;49.67;;;34.75;;
16179;SDS011;8196;49.428;10.906;2023-02-10T08:02:33;48.55;;;32.90;;
16179;SDS011;8196;49.428;10.906;2023-02-10T08:05:00;46.33;;;33.10;;
16179;SDS011;8196;49.428;10.906;2023-02-10T08:07:28;48.88;;;33.85;;
16179;SDS011;8196;49.428;10.906;2023-02-10T08:09:55;47.15;;;34.17;;
16179;SDS011;8196;49.428;10.906;2023-02-10T08:12:22;46.78;;;33.53;;
16179;SDS011;8196;49.428;10.906;2023-02-10T08:14:49;48.03;;;37.38;;
16179;SDS011;8196;49.428;10.906;2023-02-10T08:17:16;45.80;;;30.00;;
16179;SDS011;8196;49.428;10.906;2023-02-10T08:19:43;48.45;;;34.03;;
16179;SDS011;8196;49.428;10.906;2023-02-10T08:22:10;49.20;;;37.50;;
16179;SDS011;8196;49.428;10.906;2023-02-10T08:24:37;44.97;;;31.37;;
16179;SDS011;8196;49.428;10.906;2023-02-10T08:27:05;46.95;;;33.03;;
16179;SDS011;8196;49.428;10.906;2023-02-10T08:29:32;46.17;;;36.45;;
16179;SDS011;8196;49.428;10.906;2023-02-10T08:31:59;44.22;;;29.77;;
16179;SDS011;8196;49.428;10.906;2023-02-10T08:34:26;48.80;;;34.87;;
16179;SDS011;8196;49.428;10.906;2023-02-10T08:36:53;48.15;;;36.97;;
16179;SDS011;8196;49.428;10.906;2023-02-10T08:39:20;45.65;;;31.92;;
16179;SDS011;8196;49.428;10.906;2023-02-10T08:41:48;49.83;;;38.08;;
16179;SDS011;8196;49.428;10.906;2023-02-10T08:44:15;49.05;;;37.58;;
16179;SDS011;8196;49.428;10.906;2023-02-10T08:46:42;44.70;;;32.87;;
16179;SDS011;8196;49.428;10.906;2023-02-10T08:49:09;45.75;;;35.63;;
16179;SDS011;8196;49.428;10.906;2023-02-10T08:51:37;44.03;;;35.92;;
16179;SDS011;8196;49.428;10.906;2023-02-10T08:54:05;43.92;;;35.85;;
16179;SDS011;8196;49.428;10.906;2023-02-10T08:56:33;44.20;;;35.67;;
16179;SDS011;8196;49.428;10.906;2023-02-10T08:59:00;41.05;;;33.50;;
16179;SDS011;8196;49.428;10.906;2023-02-10T09:01:27;39.28;;;31.75;;
16179;SDS011;8196;49.428;10.906;2023-02-10T09:03:55;42.25;;;33.95;;
16179;SDS011;8196;49.428;10.906;2023-02-10T09:06:24;42.70;;;33.60;;
16179;SDS011;8196;49.428;10.906;2023-02-10T09:08:51;46.40;;;35.72;;
16179;SDS011;8196;49.428;10.906;2023-02-10T09:11:19;44.83;;;35.75;;
16179;SDS011;8196;49.428;10.906;2023-02-10T09:13:49;44.80;;;35.90;;
16179;SDS011;8196;49.428;10.906;2023-02-10T09:16:17;46.75;;;37.35;;
16179;SDS011;8196;49.428;10.906;2023-02-10T09:18:44;46.67;;;37.00;;
16179;SDS011;8196;49.428;10.906;2023-02-10T09:21:11;45.65;;;35.15;;
16179;SDS011;8196;49.428;10.906;2023-02-10T09:23:38;43.85;;;35.88;;
16179;SDS011;8196;49.428;10.906;2023-02-10T09:26:06;45.60;;;34.70;;
16179;SDS011;8196;49.428;10.906;2023-02-10T09:28:33;41.40;;;32.53;;
16179;SDS011;8196;49.428;10.906;2023-02-10T09:31:00;44.30;;;33.42;;
16179;SDS011;8196;49.428;10.906;2023-02-10T09:33:28;42.47;;;32.38;;
16179;SDS011;8196;49.428;10.906;2023-02-10T09:35:55;45.03;;;33.35;;
16179;SDS011;8196;49.428;10.906;2023-02-10T09:38:22;44.40;;;33.20;;
16179;SDS011;8196;49.428;10.906;2023-02-10T09:40:56;43.03;;;32.90;;
16179;SDS011;8196;49.428;10.906;2023-02-10T09:43:42;38.25;;;31.38;;
16179;SDS011;8196;49.428;10.906;2023-02-10T09:53:57;39.10;;;29.55;;
16179;SDS011;8196;49.428;10.906;2023-02-10T09:56:25;36.30;;;27.33;;
16179;SDS011;8196;49.428;10.906;2023-02-10T09:58:53;36.13;;;27.30;;
16179;SDS011;8196;49.428;10.906;2023-02-10T10:01:23;35.65;;;26.98;;
16179;SDS011;8196;49.428;10.906;2023-02-10T10:03:54;36.27;;;26.37;;
16179;SDS011;8196;49.428;10.906;2023-02-10T10:06:30;34.55;;;25.70;;
16179;SDS011;8196;49.428;10.906;2023-02-10T10:09:01;34.53;;;24.67;;
16179;SDS011;8196;49.428;10.906;2023-02-10T10:14:24;29.05;;;22.33;;
16179;SDS011;8196;49.428;10.906;2023-02-10T10:16:57;29.35;;;21.65;;
16179;SDS011;8196;49.428;10.906;2023-02-10T10:25:07;28.33;;;22.50;;
16179;SDS011;8196;49.428;10.906;2023-02-10T10:30:30;28.02;;;21.20;;
16179;SDS011;8196;49.428;10.906;2023-02-10T10:33:00;28.20;;;21.20;;
16179;SDS011;8196;49.428;10.906;2023-02-10T10:35:31;27.87;;;21.83;;
16179;SDS011;8196;49.428;10.906;2023-02-10T10:37:59;29.80;;;22.35;;
16179;SDS011;8196;49.428;10.906;2023-02-10T10:40:28;25.35;;;20.77;;
16179;SDS011;8196;49.428;10.906;2023-02-10T10:42:58;27.13;;;21.45;;
16179;SDS011;8196;49.428;10.906;2023-02-10T10:45:28;26.75;;;21.77;;
16179;SDS011;8196;49.428;10.906;2023-02-10T10:47:57;27.48;;;20.95;;
16179;SDS011;8196;49.428;10.906;2023-02-10T10:50:26;26.38;;;21.00;;
16179;SDS011;8196;49.428;10.906;2023-02-10T10:52:54;26.27;;;20.15;;
16179;SDS011;8196;49.428;10.906;2023-02-10T10:57:51;26.13;;;20.93;;
16179;SDS011;8196;49.428;10.906;2023-02-10T11:00:23;28.77;;;21.45;;
16179;SDS011;8196;49.428;10.906;2023-02-10T11:02:53;27.35;;;20.77;;
16179;SDS011;8196;49.428;10.906;2023-02-10T11:05:21;28.45;;;21.60;;
16179;SDS011;8196;49.428;10.906;2023-02-10T11:07:49;27.70;;;21.73;;
16179;SDS011;8196;49.428;10.906;2023-02-10T11:13:06;27.23;;;21.60;;
16179;SDS011;8196;49.428;10.906;2023-02-10T11:15:43;26.83;;;21.35;;
16179;SDS011;8196;49.428;10.906;2023-02-10T11:18:16;26.48;;;21.08;;
16179;SDS011;8196;49.428;10.906;2023-02-10T11:20:51;27.00;;;20.70;;
16179;SDS011;8196;49.428;10.906;2023-02-10T11:23:19;24.30;;;19.07;;
16179;SDS011;8196;49.428;10.906;2023-02-10T11:25:46;25.27;;;20.17;;
16179;SDS011;8196;49.428;10.906;2023-02-10T11:28:18;27.55;;;21.10;;
16179;SDS011;8196;49.428;10.906;2023-02-10T11:30:46;26.80;;;20.60;;
16179;SDS011;8196;49.428;10.906;2023-02-10T11:33:19;26.38;;;21.02;;
16179;SDS011;8196;49.428;10.906;2023-02-10T11:35:48;27.83;;;20.17;;
16179;SDS011;8196;49.428;10.906;2023-02-10T11:38:18;29.75;;;21.98;;
16179;SDS011;8196;49.428;10.906;2023-02-10T11:40:50;27.23;;;20.73;;
16179;SDS011;8196;49.428;10.906;2023-02-10T11:43:18;26.58;;;20.80;;
16179;SDS011;8196;49.428;10.906;2023-02-10T11:45:54;27.38;;;20.50;;
16179;SDS011;8196;49.428;10.906;2023-02-10T11:48:23;27.92;;;20.83;;
16179;SDS011;8196;49.428;10.906;2023-02-10T11:51:13;25.67;;;19.55;;
16179;SDS011;8196;49.428;10.906;2023-02-10T11:53:38;25.95;;;20.48;;
16179;SDS011;8196;49.428;10.906;2023-02-10T11:56:12;24.52;;;19.77;;
16179;SDS011;8196;49.428;10.906;2023-02-10T12:01:33;23.00;;;18.90;;
16179;SDS011;8196;49.428;10.906;2023-02-10T12:04:14;24.95;;;19.58;;
16179;SDS011;8196;49.428;10.906;2023-02-10T12:19:47;23.10;;;19.13;;
16179;SDS011;8196;49.428;10.906;2023-02-10T12:25:03;26.83;;;20.70;;
16179;SDS011;8196;49.428;10.906;2023-02-10T12:30:04;25.33;;;20.65;;
16179;SDS011;8196;49.428;10.906;2023-02-10T12:35:05;28.80;;;21.10;;
16179;SDS011;8196;49.428;10.906;2023-02-10T12:37:46;30.08;;;22.20;;
16179;SDS011;8196;49.428;10.906;2023-02-10T12:43:25;28.93;;;21.53;;
16179;SDS011;8196;49.428;10.906;2023-02-10T12:45:55;28.70;;;21.40;;
16179;SDS011;8196;49.428;10.906;2023-02-10T12:53:28;27.10;;;21.08;;
16179;SDS011;8196;49.428;10.906;2023-02-10T12:58:27;25.45;;;20.55;;
16179;SDS011;8196;49.428;10.906;2023-02-10T13:01:02;24.58;;;19.55;;
16179;SDS011;8196;49.428;10.906;2023-02-10T13:03:32;23.55;;;18.45;;
16179;SDS011;8196;49.428;10.906;2023-02-10T13:06:05;27.52;;;21.05;;
16179;SDS011;8196;49.428;10.906;2023-02-10T13:08:39;27.98;;;20.58;;
16179;SDS011;8196;49.428;10.906;2023-02-10T13:11:10;27.02;;;20.00;;
16179;SDS011;8196;49.428;10.906;2023-02-10T13:13:40;24.83;;;19.70;;
16179;SDS011;8196;49.428;10.906;2023-02-10T13:16:10;25.33;;;19.40;;
16179;SDS011;8196;49.428;10.906;2023-02-10T13:18:43;26.40;;;20.42;;
16179;SDS011;8196;49.428;10.906;2023-02-10T13:21:18;29.20;;;21.25;;
16179;SDS011;8196;49.428;10.906;2023-02-10T13:26:52;23.83;;;19.27;;
16179;SDS011;8196;49.428;10.906;2023-02-10T13:34:57;25.23;;;19.80;;
16179;SDS011;8196;49.428;10.906;2023-02-10T13:37:28;26.55;;;20.70;;
16179;SDS011;8196;49.428;10.906;2023-02-10T13:39:58;26.75;;;21.58;;
16179;SDS011;8196;49.428;10.906;2023-02-10T13:47:39;23.00;;;18.33;;
16179;SDS011;8196;49.428;10.906;2023-02-10T13:51:06;23.73;;;18.65;;
16179;SDS011;8196;49.428;10.906;2023-02-10T13:57:54;28.20;;;21.50;;
16179;SDS011;8196;49.428;10.906;2023-02-10T14:00:23;23.15;;;18.83;;
16179;SDS011;8196;49.428;10.906;2023-02-10T14:05:49;24.08;;;19.13;;
16179;SDS011;8196;49.428;10.906;2023-02-10T14:08:28;23.10;;;19.83;;
16179;SDS011;8196;49.428;10.906;2023-02-10T14:10:56;25.63;;;20.75;;
16179;SDS011;8196;49.428;10.906;2023-02-10T14:13:25;22.30;;;19.13;;
16179;SDS011;8196;49.428;10.906;2023-02-10T14:15:54;24.85;;;20.60;;
16179;SDS011;8196;49.428;10.906;2023-02-10T14:18:23;24.85;;;20.35;;
16179;SDS011;8196;49.428;10.906;2023-02-10T14:20:54;25.80;;;20.13;;
16179;SDS011;8196;49.428;10.906;2023-02-10T14:23:23;25.58;;;19.98;;
16179;SDS011;8196;49.428;10.906;2023-02-10T14:25:59;23.70;;;19.70;;
16179;SDS011;8196;49.428;10.906;2023-02-10T14:28:27;24.67;;;19.87;;
16179;SDS011;8196;49.428;10.906;2023-02-10T14:30:57;24.70;;;19.58;;
16179;SDS011;8196;49.428;10.906;2023-02-10T14:35:54;26.63;;;21.50;;
16179;SDS011;8196;49.428;10.906;2023-02-10T14:38:24;27.00;;;23.05;;
16179;SDS011;8196;49.428;10.906;2023-02-10T14:40:52;27.67;;;22.30;;
16179;SDS011;8196;49.428;10.906;2023-02-10T14:43:21;27.42;;;22.85;;
16179;SDS011;8196;49.428;10.906;2023-02-10T14:45:48;32.20;;;24.85;;
16179;SDS011;8196;49.428;10.906;2023-02-10T14:48:16;30.80;;;22.27;;
16179;SDS011;8196;49.428;10.906;2023-02-10T14:50:56;30.42;;;23.15;;
16179;SDS011;8196;49.428;10.906;2023-02-10T14:53:23;31.45;;;25.00;;
16179;SDS011;8196;49.428;10.906;2023-02-10T14:55:53;34.80;;;27.02;;
16179;SDS011;8196;49.428;10.906;2023-02-10T14:58:20;33.25;;;25.10;;
16179;SDS011;8196;49.428;10.906;2023-02-10T15:03:38;37.22;;;27.40;;
16179;SDS011;8196;49.428;10.906;2023-02-10T15:06:05;30.15;;;22.63;;
16179;SDS011;8196;49.428;10.906;2023-02-10T15:08:34;29.17;;;22.73;;
16179;SDS011;8196;49.428;10.906;2023-02-10T15:11:04;28.67;;;22.00;;
16179;SDS011;8196;49.428;10.906;2023-02-10T15:13:34;28.70;;;22.58;;
16179;SDS011;8196;49.428;10.906;2023-02-10T15:16:02;30.48;;;22.15;;
16179;SDS011;8196;49.428;10.906;2023-02-10T15:18:31;29.63;;;22.63;;
16179;SDS011;8196;49.428;10.906;2023-02-10T15:21:01;29.52;;;22.02;;
16179;SDS011;8196;49.428;10.906;2023-02-10T15:23:29;24.55;;;19.50;;
16179;SDS011;8196;49.428;10.906;2023-02-10T15:25:59;28.92;;;22.05;;
16179;SDS011;8196;49.428;10.906;2023-02-10T15:28:28;26.88;;;19.58;;
16179;SDS011;8196;49.428;10.906;2023-02-10T15:31:04;23.65;;;18.65;;
16179;SDS011;8196;49.428;10.906;2023-02-10T15:33:33;26.50;;;20.55;;
16179;SDS011;8196;49.428;10.906;2023-02-10T15:38:28;23.60;;;18.80;;
16179;SDS011;8196;49.428;10.906;2023-02-10T15:40:56;23.75;;;19.00;;
16179;SDS011;8196;49.428;10.906;2023-02-10T15:43:27;25.83;;;19.77;;
16179;SDS011;8196;49.428;10.906;2023-02-10T15:48:42;27.00;;;20.15;;
16179;SDS011;8196;49.428;10.906;2023-02-10T15:51:15;26.88;;;19.70;;
16179;SDS011;8196;49.428;10.906;2023-02-10T15:53:44;25.42;;;19.60;;
16179;SDS011;8196;49.428;10.906;2023-02-10T15:56:12;29.90;;;22.02;;
16179;SDS011;8196;49.428;10.906;2023-02-10T15:58:40;30.70;;;21.92;;
16179;SDS011;8196;49.428;10.906;2023-02-10T16:01:07;29.92;;;21.42;;
16179;SDS011;8196;49.428;10.906;2023-02-10T16:03:34;26.95;;;21.02;;
16179;SDS011;8196;49.428;10.906;2023-02-10T16:06:01;31.77;;;22.67;;
16179;SDS011;8196;49.428;10.906;2023-02-10T16:08:30;32.38;;;23.27;;
16179;SDS011;8196;49.428;10.906;2023-02-10T16:10:57;30.58;;;22.80;;
16179;SDS011;8196;49.428;10.906;2023-02-10T16:13:27;28.60;;;21.23;;
16179;SDS011;8196;49.428;10.906;2023-02-10T16:15:55;27.83;;;22.17;;
16179;SDS011;8196;49.428;10.906;2023-02-10T16:18:23;31.13;;;25.40;;